TAF LFSX
LFSX 090800Z 0909/1009 22010KT 9999 OVC015 TEMPO 0909/0911 SCT005 OVC010 BECMG 0911/0913 SCT015 OVC020 BECMG 0918/0920 SCT005 OVC010 BECMG 0922/0924 17010KT CAVOK BECMG 1003/1005 1500 SN SCT005 OVC010=
METAR LFSX
LFSX 091000Z AUTO 22007KT 9999 OVC007 02/01 Q1010=
LFSX 090930Z AUTO 23004KT 190V270 9999 OVC007 02/01 Q1009=
LFSX 090900Z AUTO 28006KT 9999 ////// 02/01 Q1009=
LFSX 090830Z AUTO 25005KT 9999 ////// 02/01 Q1009=
LFSX 090800Z AUTO 27003KT 240V300 9999 OVC011 02/01 Q1009=
WC LFSX
WS LFSX
WV LFSX